Time;durP1;ratioP1;P1;durP2;ratioP2;P2;SDS_P1;SDS_P2;PMS_P1;PMS_P2;Temp;Humidity;BMP_temperature;BMP_pressure;BME280_temperature;BME280_humidity;BME280_pressure;Samples;Min_cycle;Max_cycle;Signal;HPM_P1;HPM_P2
2022/07/27 00:00:33;;;;;;;3.42;1.35;;;12.80;99.90;;;;;;5025648;28;20504;-71
2022/07/27 00:02:58;;;;;;;3.55;1.50;;;12.70;99.90;;;;;;5031378;28;20493;-72
2022/07/27 00:05:24;;;;;;;7.75;1.70;;;12.70;99.90;;;;;;5025136;28;20050;-72
2022/07/27 00:07:50;;;;;;;4.25;1.30;;;12.70;99.90;;;;;;4996638;28;20473;-73
2022/07/27 00:10:15;;;;;;;5.50;1.30;;;12.60;99.90;;;;;;5027672;28;20034;-73
2022/07/27 00:12:41;;;;;;;4.63;1.55;;;12.60;99.90;;;;;;5028231;28;20041;-72
2022/07/27 00:15:08;;;;;;;5.70;2.00;;;12.60;99.90;;;;;;4994539;28;20068;-72
2022/07/27 00:17:34;;;;;;;5.65;1.27;;;12.60;99.90;;;;;;5010950;28;20498;-73
2022/07/27 00:20:00;;;;;;;6.28;1.55;;;12.60;99.90;;;;;;4994731;28;20041;-72
2022/07/27 00:22:26;;;;;;;4.35;1.40;;;12.60;99.90;;;;;;5026039;28;20054;-72
2022/07/27 00:24:51;;;;;;;5.80;1.80;;;12.60;99.90;;;;;;4994126;28;20051;-72
2022/07/27 00:27:17;;;;;;;6.15;1.88;;;12.60;99.90;;;;;;5023039;28;20045;-72
2022/07/27 00:29:44;;;;;;;5.15;1.98;;;12.60;99.90;;;;;;5029202;28;20099;-72
2022/07/27 00:32:10;;;;;;;4.05;1.20;;;12.70;99.90;;;;;;4992441;28;20569;-72
2022/07/27 00:34:36;;;;;;;2.88;1.40;;;12.70;99.90;;;;;;4997508;28;20487;-72
2022/07/27 00:37:02;;;;;;;4.18;1.60;;;12.80;99.90;;;;;;4993559;28;20056;-73
2022/07/27 00:39:28;;;;;;;4.82;1.90;;;12.80;99.90;;;;;;4993747;28;20034;-72
2022/07/27 00:41:54;;;;;;;4.95;1.80;;;12.80;99.90;;;;;;4975557;28;20104;-72
2022/07/27 00:44:28;;;;;;;3.25;1.80;;;12.70;99.90;;;;;;5025305;28;20128;-70
2022/07/27 00:46:55;;;;;;;4.40;1.57;;;12.70;99.90;;;;;;4993472;28;20049;-72
2022/07/27 00:49:21;;;;;;;4.63;1.73;;;12.70;99.90;;;;;;4992327;28;20679;-72
2022/07/27 00:51:48;;;;;;;4.85;1.80;;;12.70;99.90;;;;;;5027446;28;20037;-72
2022/07/27 00:54:15;;;;;;;4.40;1.95;;;12.70;99.90;;;;;;4996782;28;20034;-72
2022/07/27 00:56:41;;;;;;;3.55;1.70;;;12.70;99.90;;;;;;4995850;28;20060;-72
2022/07/27 00:59:09;;;;;;;3.17;1.30;;;12.70;99.90;;;;;;4993418;28;20545;-72
2022/07/27 01:01:34;;;;;;;7.45;1.95;;;12.80;99.90;;;;;;4992156;28;20096;-72
2022/07/27 01:04:00;;;;;;;7.43;1.92;;;12.80;99.90;;;;;;5024542;28;20054;-72
2022/07/27 01:06:27;;;;;;;4.38;1.88;;;12.80;99.90;;;;;;4996360;28;20434;-72
2022/07/27 01:09:55;;;;;;;4.72;2.08;;;12.90;99.90;;;;;;4991968;28;20565;-71
2022/07/27 01:11:39;;;;;;;3.55;1.70;;;12.90;99.90;;;;;;4993156;28;20049;-71
2022/07/27 01:14:06;;;;;;;6.25;1.98;;;13.00;99.90;;;;;;5024270;28;20071;-71
2022/07/27 01:16:32;;;;;;;3.25;1.83;;;13.00;99.90;;;;;;4994481;28;20105;-71
2022/07/27 01:18:58;;;;;;;4.75;1.90;;;13.00;99.90;;;;;;4991972;28;20034;-72
2022/07/27 01:21:23;;;;;;;4.55;1.90;;;13.00;99.90;;;;;;4994261;28;20096;-72
2022/07/27 01:23:49;;;;;;;3.38;1.52;;;13.10;99.90;;;;;;4992484;28;20128;-71
2022/07/27 01:26:15;;;;;;;4.78;1.75;;;13.10;99.90;;;;;;4997320;28;20464;-71
2022/07/27 01:28:45;;;;;;;5.60;1.63;;;13.10;99.90;;;;;;4991187;28;20126;-71
2022/07/27 01:31:10;;;;;;;6.38;1.63;;;13.20;99.90;;;;;;5027763;28;20045;-72
2022/07/27 01:33:36;;;;;;;4.47;1.52;;;13.20;99.90;;;;;;5024779;28;20038;-72
2022/07/27 01:36:02;;;;;;;5.72;1.73;;;13.20;99.90;;;;;;4995552;28;20472;-72
2022/07/27 01:38:28;;;;;;;3.65;1.50;;;13.20;99.90;;;;;;4994551;28;20279;-72
2022/07/27 01:40:54;;;;;;;4.15;1.33;;;13.20;99.90;;;;;;4994899;28;20045;-72
2022/07/27 01:43:21;;;;;;;5.40;1.45;;;13.20;99.90;;;;;;4989171;28;20049;-72
2022/07/27 01:45:47;;;;;;;2.67;1.45;;;13.20;99.90;;;;;;5013318;28;20045;-72
2022/07/27 01:48:13;;;;;;;5.22;2.00;;;13.20;99.90;;;;;;4998538;28;20072;-72
2022/07/27 01:50:39;;;;;;;7.50;1.55;;;13.20;99.90;;;;;;4995767;28;20042;-72
2022/07/27 01:53:05;;;;;;;3.35;1.50;;;13.10;99.90;;;;;;5033233;28;20100;-72
2022/07/27 01:55:31;;;;;;;3.80;1.30;;;13.10;99.90;;;;;;4995781;28;20532;-71
2022/07/27 01:57:57;;;;;;;4.85;1.63;;;13.00;99.90;;;;;;4999243;28;20037;-71
2022/07/27 02:00:22;;;;;;;6.70;2.15;;;13.00;99.90;;;;;;4976924;28;20124;-71
2022/07/27 02:02:48;;;;;;;5.13;2.13;;;12.90;99.90;;;;;;4997925;28;20107;-71
2022/07/27 02:05:14;;;;;;;5.10;1.30;;;12.80;99.90;;;;;;4978410;28;20184;-71
2022/07/27 02:07:40;;;;;;;5.57;2.13;;;12.70;99.90;;;;;;5025628;28;20053;-71
2022/07/27 02:10:08;;;;;;;4.47;1.90;;;12.70;99.90;;;;;;4993784;28;20124;-71
2022/07/27 02:12:36;;;;;;;3.83;1.63;;;12.60;99.90;;;;;;5029823;28;20168;-71
2022/07/27 02:15:15;;;;;;;3.13;1.65;;;12.50;99.90;;;;;;5028239;28;20076;-71
2022/07/27 02:17:41;;;;;;;4.53;1.85;;;12.50;99.90;;;;;;4998394;28;20491;-71
2022/07/27 02:20:08;;;;;;;6.47;2.20;;;12.40;99.90;;;;;;4995486;28;20046;-71
2022/07/27 02:22:34;;;;;;;5.10;1.65;;;12.30;99.90;;;;;;4997969;28;20726;-71
2022/07/27 02:25:00;;;;;;;5.65;2.25;;;12.30;99.90;;;;;;5029952;28;20033;-72
2022/07/27 02:27:26;;;;;;;5.43;1.98;;;12.20;99.90;;;;;;4999509;28;20061;-71
2022/07/27 02:29:52;;;;;;;6.95;2.10;;;12.10;99.90;;;;;;4994992;28;20521;-72
2022/07/27 02:32:19;;;;;;;7.65;2.13;;;12.10;99.90;;;;;;5024669;28;20073;-71
2022/07/27 02:34:45;;;;;;;4.68;1.90;;;12.10;99.90;;;;;;5033404;28;20046;-71
2022/07/27 02:37:11;;;;;;;4.85;2.00;;;12.00;99.90;;;;;;4996196;28;20050;-72
2022/07/27 02:39:37;;;;;;;5.47;2.10;;;12.00;99.90;;;;;;5007225;28;20507;-72
2022/07/27 02:42:03;;;;;;;8.32;2.35;;;11.90;99.90;;;;;;5011837;28;20485;-72
2022/07/27 02:44:29;;;;;;;5.93;2.40;;;11.90;99.90;;;;;;5030290;28;20038;-72
2022/07/27 02:46:55;;;;;;;5.80;2.55;;;11.90;99.90;;;;;;4994393;28;20148;-72
2022/07/27 02:49:20;;;;;;;7.65;2.47;;;11.80;99.90;;;;;;4996567;28;20123;-72
2022/07/27 02:51:53;;;;;;;4.45;1.98;;;11.80;99.90;;;;;;5027721;28;20426;-72
2022/07/27 02:54:20;;;;;;;5.53;1.92;;;11.70;99.90;;;;;;4970278;28;20510;-73
2022/07/27 02:56:47;;;;;;;8.80;2.22;;;11.70;99.90;;;;;;4995734;28;20498;-71
2022/07/27 02:59:13;;;;;;;4.43;2.30;;;11.70;99.90;;;;;;4981496;28;20104;-73
2022/07/27 03:01:39;;;;;;;10.98;3.72;;;11.70;99.90;;;;;;5030002;28;20544;-72
2022/07/27 03:04:05;;;;;;;7.15;2.50;;;11.60;99.90;;;;;;5030524;28;20050;-71
2022/07/27 03:06:31;;;;;;;8.27;2.60;;;11.60;99.90;;;;;;4994880;28;20049;-72
2022/07/27 03:08:57;;;;;;;4.05;2.20;;;11.60;99.90;;;;;;5029279;28;20038;-73
2022/07/27 03:11:23;;;;;;;6.05;2.80;;;11.50;99.90;;;;;;5028027;28;20045;-72
2022/07/27 03:13:49;;;;;;;8.05;2.72;;;11.50;99.90;;;;;;5011895;28;20033;-73
2022/07/27 03:16:14;;;;;;;7.13;2.53;;;11.50;99.90;;;;;;4994682;28;20037;-73
2022/07/27 03:18:40;;;;;;;5.35;2.58;;;11.50;99.90;;;;;;5028251;28;20038;-73
2022/07/27 03:21:06;;;;;;;5.00;2.65;;;11.40;99.90;;;;;;5031062;28;20409;-71
2022/07/27 03:23:32;;;;;;;6.88;3.10;;;11.40;99.90;;;;;;5024288;28;20041;-70
2022/07/27 03:25:58;;;;;;;4.72;2.63;;;11.30;99.90;;;;;;4999616;28;20044;-71
2022/07/27 03:28:24;;;;;;;6.35;2.85;;;11.30;99.90;;;;;;4993711;28;20092;-71
2022/07/27 03:30:49;;;;;;;5.95;2.78;;;11.30;99.90;;;;;;5028920;28;20307;-70
2022/07/27 03:33:15;;;;;;;7.70;2.55;;;11.30;99.90;;;;;;4992660;28;20046;-70
2022/07/27 03:35:41;;;;;;;6.63;2.92;;;11.30;99.90;;;;;;5027733;28;20069;-70
2022/07/27 03:38:07;;;;;;;4.95;2.90;;;11.20;99.90;;;;;;5026862;28;20104;-70
2022/07/27 03:40:32;;;;;;;5.00;2.50;;;11.20;99.90;;;;;;5030179;28;20491;-70
2022/07/27 03:42:58;;;;;;;6.38;3.00;;;11.20;99.90;;;;;;4992609;28;20045;-70
2022/07/27 03:45:25;;;;;;;3.72;2.58;;;11.20;99.90;;;;;;5012001;28;20054;-71
2022/07/27 03:47:51;;;;;;;5.28;2.92;;;11.20;99.90;;;;;;4995914;28;20658;-71
2022/07/27 03:50:17;;;;;;;3.95;3.00;;;11.30;99.90;;;;;;5029669;28;20128;-71
2022/07/27 03:52:43;;;;;;;10.63;3.25;;;11.40;99.90;;;;;;4993881;28;20438;-71
2022/07/27 03:55:08;;;;;;;5.95;2.90;;;11.50;99.90;;;;;;5029202;28;20096;-71
2022/07/27 03:57:34;;;;;;;3.30;2.55;;;11.60;99.90;;;;;;4994702;28;20048;-71
2022/07/27 04:00:00;;;;;;;8.18;2.92;;;11.60;99.90;;;;;;4993664;28;20570;-71
2022/07/27 04:02:26;;;;;;;5.57;2.70;;;11.60;99.90;;;;;;5030610;28;20052;-71
2022/07/27 04:04:51;;;;;;;5.82;2.83;;;11.70;99.90;;;;;;5026728;28;20481;-71
2022/07/27 04:07:17;;;;;;;5.55;2.42;;;11.70;99.90;;;;;;5025776;28;20033;-71
2022/07/27 04:09:43;;;;;;;5.97;2.92;;;11.80;99.90;;;;;;4993567;28;20068;-71
2022/07/27 04:12:08;;;;;;;5.95;2.42;;;11.70;99.90;;;;;;5027063;28;20137;-71
2022/07/27 04:14:34;;;;;;;8.13;2.65;;;11.80;99.90;;;;;;4990940;28;20575;-71
2022/07/27 04:17:00;;;;;;;4.70;2.35;;;11.80;99.90;;;;;;4994768;28;20049;-71
2022/07/27 04:19:25;;;;;;;7.38;2.75;;;11.80;99.90;;;;;;5025954;28;20045;-71
2022/07/27 04:21:51;;;;;;;4.68;2.35;;;11.80;99.90;;;;;;5025762;28;20495;-71
2022/07/27 04:24:17;;;;;;;6.30;2.63;;;11.80;99.90;;;;;;5027755;28;20049;-71
2022/07/27 04:26:42;;;;;;;4.15;2.30;;;11.80;99.90;;;;;;5029885;28;20405;-71
2022/07/27 04:29:08;;;;;;;5.40;2.42;;;11.80;99.90;;;;;;5027015;28;20046;-71
2022/07/27 04:31:34;;;;;;;6.53;2.38;;;11.90;99.90;;;;;;5027557;28;20042;-71
2022/07/27 04:33:59;;;;;;;5.88;2.47;;;12.00;99.90;;;;;;5025936;28;20049;-71
2022/07/27 04:36:25;;;;;;;15.82;9.35;;;12.00;99.90;;;;;;5012176;28;20068;-71
2022/07/27 04:38:51;;;;;;;8.75;3.13;;;12.10;99.90;;;;;;5011777;28;20557;-71
2022/07/27 04:41:16;;;;;;;5.05;2.60;;;12.20;99.90;;;;;;5008874;28;20050;-71
2022/07/27 04:43:42;;;;;;;7.32;2.78;;;12.20;99.90;;;;;;5010906;28;20049;-71
2022/07/27 04:46:08;;;;;;;7.25;2.58;;;12.30;99.90;;;;;;5025984;28;20049;-71
2022/07/27 04:48:34;;;;;;;4.78;2.42;;;12.30;99.90;;;;;;5009694;28;20058;-71
2022/07/27 04:51:01;;;;;;;4.85;2.15;;;12.40;99.90;;;;;;4991091;28;20092;-71
2022/07/27 04:53:26;;;;;;;6.18;2.20;;;12.50;99.90;;;;;;4993425;28;20073;-71
2022/07/27 04:55:52;;;;;;;4.25;2.45;;;12.50;99.90;;;;;;4992144;28;20049;-71
2022/07/27 04:58:18;;;;;;;4.53;1.88;;;12.50;99.90;;;;;;4991617;28;20069;-71
2022/07/27 05:00:44;;;;;;;4.43;1.85;;;12.60;99.90;;;;;;5024083;28;20524;-71
2022/07/27 05:03:09;;;;;;;6.25;2.03;;;12.70;99.90;;;;;;4995647;28;20050;-71
2022/07/27 05:05:35;;;;;;;7.55;2.25;;;12.70;99.90;;;;;;4990878;28;20150;-71
2022/07/27 05:08:01;;;;;;;5.97;2.17;;;12.80;99.90;;;;;;4996602;28;20069;-71
2022/07/27 05:10:27;;;;;;;5.82;1.95;;;12.90;99.90;;;;;;4992415;28;20125;-71
2022/07/27 05:12:53;;;;;;;12.85;2.45;;;12.90;99.90;;;;;;4993441;28;20133;-71
2022/07/27 05:15:19;;;;;;;6.88;2.20;;;13.00;99.90;;;;;;4993883;28;20121;-71
2022/07/27 05:17:46;;;;;;;6.47;1.83;;;12.90;99.90;;;;;;4995556;28;20470;-71
2022/07/27 05:20:12;;;;;;;10.07;2.03;;;13.00;99.90;;;;;;5033224;28;20046;-71
2022/07/27 05:22:38;;;;;;;7.85;2.05;;;13.00;99.90;;;;;;5001600;28;20125;-71
2022/07/27 05:25:04;;;;;;;7.55;1.83;;;13.00;99.90;;;;;;5002428;28;20153;-71
2022/07/27 05:27:30;;;;;;;6.95;3.42;;;13.10;99.90;;;;;;5013924;28;20046;-71
2022/07/27 05:29:56;;;;;;;5.60;1.92;;;13.20;99.90;;;;;;5015931;28;20038;-71
2022/07/27 05:32:22;;;;;;;3.97;1.70;;;13.20;99.90;;;;;;5031037;28;20475;-71
2022/07/27 05:34:47;;;;;;;4.13;1.63;;;13.30;99.90;;;;;;5034745;28;20409;-71
2022/07/27 05:37:13;;;;;;;6.10;1.70;;;13.30;99.90;;;;;;4998779;28;20046;-71
2022/07/27 05:39:41;;;;;;;5.18;1.50;;;13.40;99.90;;;;;;5031558;28;20049;-71
2022/07/27 05:42:08;;;;;;;3.25;1.75;;;13.40;99.90;;;;;;4982703;28;20050;-71
2022/07/27 05:44:34;;;;;;;6.65;1.95;;;13.40;99.90;;;;;;5017260;28;20053;-71
2022/07/27 05:47:00;;;;;;;6.38;1.70;;;13.50;99.90;;;;;;5031828;28;20069;-72
2022/07/27 05:49:25;;;;;;;5.82;2.20;;;13.50;99.90;;;;;;5001004;28;20113;-71
2022/07/27 05:51:51;;;;;;;4.60;1.70;;;13.60;99.90;;;;;;4999269;28;20072;-71
2022/07/27 05:54:18;;;;;;;9.70;1.90;;;13.60;99.90;;;;;;5032863;28;20082;-71
2022/07/27 05:56:44;;;;;;;5.68;1.92;;;13.70;99.90;;;;;;4998311;28;20108;-71
2022/07/27 05:59:10;;;;;;;3.10;1.38;;;13.80;99.90;;;;;;5001252;28;20037;-71
2022/07/27 06:01:36;;;;;;;7.75;1.30;;;13.90;99.90;;;;;;5032419;28;20045;-71
2022/07/27 06:04:02;;;;;;;4.22;1.55;;;14.00;99.90;;;;;;5016366;28;20674;-71
2022/07/27 06:09:12;;;;;;;6.05;1.25;;;14.10;99.90;;;;;;5030663;28;20049;-71
2022/07/27 06:11:38;;;;;;;5.13;1.35;;;14.20;99.90;;;;;;5001381;28;20046;-71
2022/07/27 06:14:04;;;;;;;4.20;1.40;;;14.30;99.90;;;;;;5028985;28;20041;-71
2022/07/27 06:16:29;;;;;;;5.03;1.52;;;14.30;99.90;;;;;;5034790;28;20129;-71
2022/07/27 06:18:55;;;;;;;5.85;1.30;;;14.40;99.90;;;;;;4996925;28;20030;-71
2022/07/27 06:21:25;;;;;;;5.78;1.52;;;14.50;99.90;;;;;;5000336;28;20132;-71
2022/07/27 06:23:51;;;;;;;4.35;1.25;;;14.50;99.90;;;;;;4997594;28;20041;-71
2022/07/27 06:26:17;;;;;;;4.70;1.45;;;14.50;99.90;;;;;;5001458;28;20057;-71
2022/07/27 06:28:43;;;;;;;5.57;1.70;;;14.50;99.90;;;;;;5029800;28;20056;-71
2022/07/27 06:31:09;;;;;;;7.95;1.23;;;14.40;99.90;;;;;;5031712;28;20122;-71
2022/07/27 06:33:34;;;;;;;5.25;1.55;;;14.50;99.90;;;;;;4993883;28;20667;-71
2022/07/27 06:36:01;;;;;;;6.47;1.40;;;14.50;99.90;;;;;;5012781;28;20124;-71
2022/07/27 06:38:27;;;;;;;7.20;1.77;;;14.50;99.90;;;;;;5029599;28;20091;-71
2022/07/27 06:40:53;;;;;;;6.55;1.65;;;14.50;99.90;;;;;;4997513;28;20100;-71
2022/07/27 06:43:25;;;;;;;6.30;1.55;;;14.50;99.90;;;;;;5012288;28;20053;-71
2022/07/27 06:45:55;;;;;;;4.78;1.10;;;14.60;99.90;;;;;;4993634;28;20049;-71
2022/07/27 06:48:21;;;;;;;5.10;0.90;;;14.70;99.90;;;;;;5011194;28;20134;-71
2022/07/27 06:50:48;;;;;;;3.88;0.95;;;14.70;99.90;;;;;;4996282;28;20096;-71
2022/07/27 06:53:13;;;;;;;5.80;0.90;;;14.90;99.90;;;;;;5028069;28;20038;-71
2022/07/27 06:55:40;;;;;;;6.32;1.00;;;15.00;99.90;;;;;;5030050;28;20037;-71
2022/07/27 06:58:06;;;;;;;5.22;1.17;;;15.10;99.90;;;;;;5032277;28;20482;-71
2022/07/27 07:00:32;;;;;;;4.32;1.08;;;15.20;99.90;;;;;;4977430;28;20196;-71
2022/07/27 07:03:01;;;;;;;4.97;0.85;;;15.30;99.90;;;;;;4995884;28;20457;-71
2022/07/27 07:05:28;;;;;;;4.65;0.70;;;15.40;99.90;;;;;;4992096;28;20069;-71
2022/07/27 07:07:54;;;;;;;3.22;0.57;;;15.50;99.90;;;;;;4981111;28;20136;-71
2022/07/27 07:10:21;;;;;;;4.30;0.70;;;15.60;99.90;;;;;;4994477;28;20037;-71
2022/07/27 07:12:47;;;;;;;6.07;0.77;;;15.70;99.90;;;;;;4990013;28;20046;-71
2022/07/27 07:15:12;;;;;;;4.47;0.90;;;15.80;99.90;;;;;;5027583;28;20488;-71
2022/07/27 07:17:39;;;;;;;3.72;0.60;;;15.90;99.90;;;;;;5014587;28;20780;-72
2022/07/27 07:20:06;;;;;;;5.80;1.20;;;16.00;99.90;;;;;;4978010;28;20054;-72
2022/07/27 07:22:33;;;;;;;4.88;1.27;;;16.10;99.90;;;;;;5030740;28;20050;-72
2022/07/27 07:25:02;;;;;;;8.25;1.63;;;16.30;99.90;;;;;;4996058;28;20046;-71
2022/07/27 07:27:28;;;;;;;5.25;0.77;;;16.30;99.90;;;;;;4995426;28;20064;-71
2022/07/27 07:29:54;;;;;;;3.65;0.70;;;16.50;99.90;;;;;;5009732;28;20046;-71
2022/07/27 07:32:21;;;;;;;8.80;1.15;;;16.70;99.90;;;;;;5027346;28;20442;-71
2022/07/27 07:34:51;;;;;;;5.47;0.93;;;16.80;99.90;;;;;;5028308;28;20048;-71
2022/07/27 07:37:17;;;;;;;4.53;0.90;;;17.00;99.90;;;;;;5028766;28;20485;-71
2022/07/27 07:39:43;;;;;;;4.20;0.70;;;17.00;99.90;;;;;;5002571;28;20109;-71
2022/07/27 07:42:09;;;;;;;5.63;0.77;;;17.20;99.90;;;;;;5027510;28;20124;-71
2022/07/27 07:44:34;;;;;;;6.63;0.88;;;17.20;99.90;;;;;;4992342;28;20065;-71
2022/07/27 07:47:00;;;;;;;4.30;0.57;;;17.40;99.90;;;;;;5026911;28;20050;-71
2022/07/27 07:49:26;;;;;;;5.80;0.85;;;17.50;99.90;;;;;;4977860;28;20042;-72
2022/07/27 07:51:52;;;;;;;3.78;0.70;;;17.70;99.90;;;;;;4993141;28;20041;-71
2022/07/27 07:54:18;;;;;;;4.32;0.77;;;17.80;99.90;;;;;;5030494;28;20044;-71
2022/07/27 07:56:43;;;;;;;4.53;1.10;;;17.90;99.90;;;;;;5027467;28;20041;-71
2022/07/27 07:59:09;;;;;;;4.75;0.90;;;17.90;99.90;;;;;;4996649;28;20042;-72
2022/07/27 08:01:35;;;;;;;4.28;0.98;;;17.90;99.90;;;;;;5027944;28;20042;-71
2022/07/27 08:04:00;;;;;;;6.28;0.90;;;18.00;99.90;;;;;;5030537;28;20061;-71
2022/07/27 08:06:26;;;;;;;5.68;1.05;;;18.10;99.90;;;;;;5025975;28;20060;-71
2022/07/27 08:08:52;;;;;;;6.38;0.90;;;18.10;99.90;;;;;;4999379;28;20160;-71
2022/07/27 08:11:18;;;;;;;6.35;1.15;;;18.30;99.90;;;;;;5028019;28;20446;-71
2022/07/27 08:13:43;;;;;;;4.93;0.80;;;18.40;99.90;;;;;;4996052;28;20069;-71
2022/07/27 08:16:09;;;;;;;6.43;1.10;;;18.50;99.90;;;;;;4994356;28;20137;-71
2022/07/27 08:18:35;;;;;;;4.88;0.90;;;18.70;99.90;;;;;;5026449;28;20168;-71
2022/07/27 08:21:00;;;;;;;4.90;0.70;;;18.90;99.90;;;;;;4995103;28;20441;-72
2022/07/27 08:23:26;;;;;;;5.10;0.88;;;19.20;99.90;;;;;;4995553;28;20718;-72
2022/07/27 08:25:52;;;;;;;3.70;1.00;;;19.70;99.30;;;;;;5027018;28;20060;-72
2022/07/27 08:28:18;;;;;;;5.97;0.90;;;20.00;99.10;;;;;;4990452;28;20029;-72
2022/07/27 08:30:44;;;;;;;4.45;0.70;;;19.80;97.80;;;;;;4978735;28;20370;-72
2022/07/27 08:33:10;;;;;;;5.97;0.90;;;20.30;98.40;;;;;;4993142;28;20120;-72
2022/07/27 08:35:35;;;;;;;5.75;0.80;;;21.10;97.30;;;;;;5027088;28;20037;-72
2022/07/27 08:38:04;;;;;;;6.25;0.90;;;21.70;96.10;;;;;;4993603;28;20034;-72
2022/07/27 08:40:30;;;;;;;4.35;0.77;;;22.40;94.70;;;;;;4992077;28;20077;-72
2022/07/27 08:42:55;;;;;;;4.40;0.63;;;22.80;93.00;;;;;;5026837;28;20474;-72
2022/07/27 08:45:23;;;;;;;6.43;0.80;;;22.80;85.30;;;;;;5014616;28;20034;-72
2022/07/27 08:47:48;;;;;;;2.80;0.50;;;22.40;82.80;;;;;;5023730;28;20176;-72
2022/07/27 08:50:23;;;;;;;5.32;0.70;;;21.50;81.00;;;;;;5013276;28;20612;-72
2022/07/27 08:53:10;;;;;;;4.75;0.85;;;20.70;82.50;;;;;;5027414;28;20125;-72
2022/07/27 08:55:38;;;;;;;2.38;0.60;;;20.10;84.00;;;;;;4973251;28;20185;-72
2022/07/27 08:58:05;;;;;;;4.90;0.65;;;19.90;87.10;;;;;;5022764;28;20038;-67
2022/07/27 09:00:32;;;;;;;5.10;0.60;;;20.50;88.20;;;;;;5030586;28;20045;-68
2022/07/27 09:02:59;;;;;;;4.63;0.90;;;20.70;88.40;;;;;;4997427;28;20058;-68
2022/07/27 09:05:25;;;;;;;4.13;0.73;;;20.70;86.20;;;;;;5012883;28;20075;-69
2022/07/27 09:07:51;;;;;;;3.55;0.90;;;20.50;86.80;;;;;;5011081;28;20125;-67
2022/07/27 09:10:34;;;;;;;5.72;0.68;;;20.30;87.90;;;;;;5011866;28;20466;-65
2022/07/27 09:13:22;;;;;;;7.13;0.90;;;19.90;88.90;;;;;;4981058;28;20135;-68
2022/07/27 09:15:57;;;;;;;5.18;0.60;;;19.30;90.90;;;;;;5010330;28;20121;-67
2022/07/27 09:18:25;;;;;;;5.43;0.80;;;18.80;91.90;;;;;;5010654;28;20037;-75
2022/07/27 09:21:12;;;;;;;6.80;0.75;;;18.60;93.30;;;;;;4995275;28;20054;-74
2022/07/27 09:23:40;;;;;;;5.18;0.88;;;18.50;94.00;;;;;;5010415;28;20081;-73
2022/07/27 09:26:15;;;;;;;4.50;0.85;;;18.30;94.80;;;;;;5010771;28;20061;-73
2022/07/27 09:28:41;;;;;;;2.83;0.50;;;18.40;94.90;;;;;;4992241;28;20042;-73
2022/07/27 09:31:10;;;;;;;4.82;0.73;;;18.40;94.60;;;;;;5025812;28;21112;-73
2022/07/27 09:33:43;;;;;;;4.15;0.50;;;18.30;94.40;;;;;;4992371;28;20056;-73
2022/07/27 09:36:08;;;;;;;4.45;0.60;;;18.40;94.30;;;;;;5024923;28;20493;-73
2022/07/27 09:38:34;;;;;;;4.05;0.77;;;18.40;94.10;;;;;;5022121;28;20197;-74
2022/07/27 09:41:02;;;;;;;3.78;0.70;;;18.50;94.50;;;;;;4994607;28;20069;-74
2022/07/27 09:43:28;;;;;;;5.55;0.70;;;18.70;94.10;;;;;;4996884;28;20395;-74
2022/07/27 09:45:54;;;;;;;6.78;0.90;;;19.60;95.10;;;;;;5025139;28;20045;-74
2022/07/27 09:48:22;;;;;;;3.08;0.45;;;20.40;92.70;;;;;;4979802;28;20410;-74
2022/07/27 09:50:57;;;;;;;4.25;0.80;;;20.70;91.90;;;;;;4987904;28;20049;-74
2022/07/27 09:53:25;;;;;;;3.15;0.82;;;20.80;89.60;;;;;;4994015;28;20037;-75
2022/07/27 09:56:16;;;;;;;4.28;0.63;;;20.80;90.20;;;;;;4990358;28;20041;-72
2022/07/27 09:58:48;;;;;;;4.10;0.50;;;20.60;85.90;;;;;;4993257;28;20086;-73
2022/07/27 10:01:23;;;;;;;3.55;0.60;;;20.30;85.60;;;;;;5025394;28;20042;-73
2022/07/27 10:03:51;;;;;;;4.15;0.75;;;20.30;87.30;;;;;;4995380;28;20049;-74
2022/07/27 10:06:17;;;;;;;3.25;0.88;;;20.30;85.30;;;;;;4994600;28;20536;-73
2022/07/27 10:08:47;;;;;;;2.88;0.52;;;20.10;86.70;;;;;;4981207;28;20482;-73
2022/07/27 10:11:15;;;;;;;3.00;0.50;;;20.10;89.80;;;;;;4991340;28;20048;-74
2022/07/27 10:13:41;;;;;;;2.80;0.45;;;20.00;88.60;;;;;;4996827;28;20061;-73
2022/07/27 10:16:12;;;;;;;2.83;0.50;;;19.90;89.30;;;;;;4997284;28;20060;-74
2022/07/27 10:19:05;;;;;;;5.07;0.57;;;19.70;86.30;;;;;;5030678;28;20037;-75
2022/07/27 10:21:34;;;;;;;2.42;0.50;;;19.50;85.70;;;;;;4994297;28;20038;-74
2022/07/27 10:24:02;;;;;;;3.25;0.60;;;19.30;88.60;;;;;;5011657;28;20502;-74
2022/07/27 10:26:30;;;;;;;6.60;0.80;;;19.30;87.40;;;;;;5011711;28;20048;-73
2022/07/27 10:29:03;;;;;;;4.65;0.73;;;19.20;86.10;;;;;;4995532;28;20053;-73
2022/07/27 10:31:37;;;;;;;4.43;0.52;;;19.20;86.40;;;;;;4994165;28;20398;-72
2022/07/27 10:34:08;;;;;;;6.00;0.82;;;19.20;86.20;;;;;;5012292;28;20061;-74
2022/07/27 10:36:34;;;;;;;2.00;0.45;;;19.30;85.50;;;;;;4978035;28;20057;-74
2022/07/27 10:39:06;;;;;;;2.15;0.40;;;19.30;86.30;;;;;;4995010;28;20378;-73
2022/07/27 10:41:40;;;;;;;4.90;0.77;;;19.60;85.10;;;;;;5002787;28;20048;-73
2022/07/27 10:44:21;;;;;;;3.13;0.70;;;19.80;87.10;;;;;;4995588;28;20133;-73
2022/07/27 10:46:52;;;;;;;2.30;0.40;;;20.10;84.00;;;;;;4997056;28;20551;-73
2022/07/27 10:49:20;;;;;;;3.08;0.50;;;20.50;86.30;;;;;;4993786;28;20486;-72
2022/07/27 10:51:46;;;;;;;6.80;0.70;;;21.00;82.20;;;;;;5012324;28;20076;-73
2022/07/27 10:54:24;;;;;;;3.47;0.50;;;21.50;81.50;;;;;;4999844;28;20029;-73
2022/07/27 10:56:51;;;;;;;3.80;0.68;;;22.00;80.00;;;;;;4997878;28;20073;-73
2022/07/27 10:59:38;;;;;;;3.67;0.68;;;22.20;77.50;;;;;;5029484;28;20079;-74
2022/07/27 11:02:06;;;;;;;3.65;0.40;;;22.20;77.00;;;;;;5012699;28;20065;-74
2022/07/27 11:04:41;;;;;;;3.00;0.60;;;22.30;74.80;;;;;;4997926;28;20062;-73
2022/07/27 11:07:07;;;;;;;2.65;0.50;;;22.30;71.40;;;;;;4995587;28;20595;-72
2022/07/27 11:09:39;;;;;;;6.07;0.70;;;22.20;70.20;;;;;;5029683;28;20132;-74
2022/07/27 11:12:08;;;;;;;1.83;0.30;;;22.00;69.20;;;;;;4993793;28;20049;-73
2022/07/27 11:14:54;;;;;;;1.58;0.40;;;21.80;69.10;;;;;;5008821;28;20053;-73
2022/07/27 11:17:22;;;;;;;4.57;0.60;;;21.70;67.90;;;;;;4991818;28;20049;-73
2022/07/27 11:19:53;;;;;;;3.25;0.50;;;21.50;69.10;;;;;;4996439;28;20129;-73
2022/07/27 11:22:39;;;;;;;3.92;0.40;;;21.30;69.70;;;;;;4980208;28;20409;-73
2022/07/27 11:25:06;;;;;;;4.65;0.70;;;21.10;68.90;;;;;;4992531;28;20038;-73
2022/07/27 11:27:48;;;;;;;5.07;0.60;;;20.90;72.30;;;;;;4994212;28;20041;-73
2022/07/27 11:30:27;;;;;;;5.22;0.65;;;20.70;70.30;;;;;;4994908;28;20091;-73
2022/07/27 11:32:54;;;;;;;3.40;0.50;;;20.50;71.10;;;;;;5027113;28;20463;-73
2022/07/27 11:35:20;;;;;;;2.38;0.40;;;20.20;71.70;;;;;;4996398;28;20046;-74
2022/07/27 11:38:01;;;;;;;4.80;0.70;;;20.10;72.40;;;;;;4994899;28;20057;-74
2022/07/27 11:40:27;;;;;;;3.95;0.52;;;20.10;72.90;;;;;;4980001;28;20073;-72
2022/07/27 11:42:53;;;;;;;2.28;0.43;;;20.10;72.90;;;;;;5030342;28;20053;-73
2022/07/27 11:45:31;;;;;;;3.45;0.70;;;20.10;72.20;;;;;;5024671;28;20057;-73
2022/07/27 11:47:57;;;;;;;3.90;0.55;;;20.30;73.80;;;;;;4996524;28;20126;-74
2022/07/27 11:50:23;;;;;;;4.85;0.68;;;20.90;75.30;;;;;;4996417;28;20176;-74
2022/07/27 11:53:08;;;;;;;5.72;0.70;;;21.60;71.90;;;;;;5029355;28;20316;-76
2022/07/27 11:55:34;;;;;;;3.00;0.50;;;22.50;68.90;;;;;;4995666;28;20125;-73
2022/07/27 11:58:03;;;;;;;4.28;0.50;;;23.30;67.40;;;;;;4977136;28;20117;-74
2022/07/27 12:00:55;;;;;;;5.97;0.70;;;23.80;66.20;;;;;;5010041;28;20194;-74
2022/07/27 12:03:28;;;;;;;3.05;0.52;;;23.80;62.00;;;;;;4997604;28;20090;-74
2022/07/27 12:05:58;;;;;;;3.00;0.30;;;23.50;63.90;;;;;;4993480;28;20112;-74
2022/07/27 12:08:25;;;;;;;1.52;0.38;;;23.10;61.20;;;;;;4995039;28;20049;-73
2022/07/27 12:10:58;;;;;;;1.85;0.35;;;22.40;59.00;;;;;;4991896;28;20121;-73
2022/07/27 12:13:32;;;;;;;3.15;0.47;;;21.80;58.10;;;;;;4984224;28;20073;-73
2022/07/27 12:15:58;;;;;;;1.60;0.30;;;21.20;58.20;;;;;;4993985;28;20038;-74
2022/07/27 12:18:24;;;;;;;3.58;0.55;;;20.80;60.20;;;;;;4978763;28;20059;-74
2022/07/27 12:20:50;;;;;;;3.72;0.43;;;20.60;61.70;;;;;;5011191;28;20045;-74
2022/07/27 12:23:16;;;;;;;1.15;0.22;;;20.60;62.40;;;;;;5014583;28;20088;-74
2022/07/27 12:25:43;;;;;;;2.83;0.40;;;20.70;64.10;;;;;;5008106;28;20048;-74
2022/07/27 12:28:16;;;;;;;6.72;0.30;;;20.70;63.50;;;;;;5028881;28;20085;-74
2022/07/27 12:30:48;;;;;;;1.48;0.30;;;20.80;61.60;;;;;;4986723;28;20050;-74
2022/07/27 12:33:35;;;;;;;1.55;0.30;;;20.90;62.40;;;;;;4997215;28;20078;-74
2022/07/27 12:36:04;;;;;;;1.63;0.30;;;21.10;61.30;;;;;;4992858;28;20481;-74
2022/07/27 12:38:42;;;;;;;4.70;0.50;;;21.20;63.10;;;;;;4994702;28;20100;-74
2022/07/27 12:41:08;;;;;;;2.20;0.30;;;21.50;63.40;;;;;;4993332;28;20506;-74
2022/07/27 12:43:34;;;;;;;1.15;0.30;;;21.60;63.50;;;;;;5027313;28;20152;-74
2022/07/27 12:46:10;;;;;;;2.47;0.40;;;21.80;63.70;;;;;;5009293;28;20069;-74
2022/07/27 12:48:41;;;;;;;2.22;0.32;;;21.90;61.30;;;;;;4993760;28;20048;-73
2022/07/27 12:51:08;;;;;;;3.90;0.30;;;22.00;62.00;;;;;;4991659;28;20505;-74